sensor_id;sensor_type;location;lat;lon;timestamp;P1;durP1;ratioP1;P2;durP2;ratioP2
80127;SDS011;69440;52.118;5.408;2023-11-18T00:01:57;22.50;;;9.95;;
80127;SDS011;69440;52.118;5.408;2023-11-18T00:04:24;22.90;;;10.75;;
80127;SDS011;69440;52.118;5.408;2023-11-18T00:06:51;22.15;;;10.38;;
80127;SDS011;69440;52.118;5.408;2023-11-18T00:09:18;20.58;;;9.95;;
80127;SDS011;69440;52.118;5.408;2023-11-18T00:11:46;22.88;;;10.75;;
80127;SDS011;69440;52.118;5.408;2023-11-18T00:14:12;29.30;;;10.30;;
80127;SDS011;69440;52.118;5.408;2023-11-18T00:16:39;18.95;;;9.40;;
80127;SDS011;69440;52.118;5.408;2023-11-18T00:19:06;27.88;;;9.88;;
80127;SDS011;69440;52.118;5.408;2023-11-18T00:21:32;20.88;;;9.77;;
80127;SDS011;69440;52.118;5.408;2023-11-18T00:23:59;22.73;;;11.00;;
80127;SDS011;69440;52.118;5.408;2023-11-18T00:26:25;17.90;;;9.82;;
80127;SDS011;69440;52.118;5.408;2023-11-18T00:28:52;20.95;;;9.43;;
80127;SDS011;69440;52.118;5.408;2023-11-18T00:31:19;17.58;;;9.57;;
80127;SDS011;69440;52.118;5.408;2023-11-18T00:33:45;20.08;;;10.57;;
80127;SDS011;69440;52.118;5.408;2023-11-18T00:36:12;17.60;;;9.80;;
80127;SDS011;69440;52.118;5.408;2023-11-18T00:38:38;19.35;;;9.48;;
80127;SDS011;69440;52.118;5.408;2023-11-18T00:43:32;17.35;;;8.73;;
80127;SDS011;69440;52.118;5.408;2023-11-18T00:45:59;16.83;;;9.23;;
80127;SDS011;69440;52.118;5.408;2023-11-18T00:48:25;18.52;;;9.30;;
80127;SDS011;69440;52.118;5.408;2023-11-18T00:50:52;14.80;;;8.38;;
80127;SDS011;69440;52.118;5.408;2023-11-18T00:53:18;18.30;;;9.15;;
80127;SDS011;69440;52.118;5.408;2023-11-18T00:55:45;18.90;;;9.23;;
80127;SDS011;69440;52.118;5.408;2023-11-18T00:58:11;22.60;;;9.23;;
80127;SDS011;69440;52.118;5.408;2023-11-18T01:00:38;20.45;;;8.80;;
80127;SDS011;69440;52.118;5.408;2023-11-18T01:03:05;18.60;;;9.48;;
80127;SDS011;69440;52.118;5.408;2023-11-18T01:05:31;19.67;;;8.73;;
80127;SDS011;69440;52.118;5.408;2023-11-18T01:07:58;15.75;;;8.13;;
80127;SDS011;69440;52.118;5.408;2023-11-18T01:10:24;19.10;;;8.35;;
80127;SDS011;69440;52.118;5.408;2023-11-18T01:12:51;18.27;;;9.25;;
80127;SDS011;69440;52.118;5.408;2023-11-18T01:15:17;21.52;;;9.57;;
80127;SDS011;69440;52.118;5.408;2023-11-18T01:17:44;19.40;;;8.43;;
80127;SDS011;69440;52.118;5.408;2023-11-18T01:20:10;15.38;;;8.65;;
80127;SDS011;69440;52.118;5.408;2023-11-18T01:22:37;18.60;;;8.60;;
80127;SDS011;69440;52.118;5.408;2023-11-18T01:25:05;17.75;;;8.27;;
80127;SDS011;69440;52.118;5.408;2023-11-18T01:27:32;18.35;;;10.05;;
80127;SDS011;69440;52.118;5.408;2023-11-18T01:30:01;17.15;;;8.23;;
80127;SDS011;69440;52.118;5.408;2023-11-18T01:32:28;18.17;;;9.32;;
80127;SDS011;69440;52.118;5.408;2023-11-18T01:34:56;20.52;;;10.23;;
80127;SDS011;69440;52.118;5.408;2023-11-18T01:37:23;23.77;;;11.20;;
80127;SDS011;69440;52.118;5.408;2023-11-18T01:39:50;26.60;;;11.98;;
80127;SDS011;69440;52.118;5.408;2023-11-18T01:42:17;23.05;;;12.00;;
80127;SDS011;69440;52.118;5.408;2023-11-18T01:44:43;24.50;;;10.43;;
80127;SDS011;69440;52.118;5.408;2023-11-18T01:47:10;21.83;;;10.48;;
80127;SDS011;69440;52.118;5.408;2023-11-18T01:49:39;23.27;;;10.18;;
80127;SDS011;69440;52.118;5.408;2023-11-18T01:52:07;26.00;;;12.13;;
80127;SDS011;69440;52.118;5.408;2023-11-18T01:54:35;24.88;;;11.35;;
80127;SDS011;69440;52.118;5.408;2023-11-18T01:57:04;23.27;;;11.68;;
80127;SDS011;69440;52.118;5.408;2023-11-18T01:59:33;27.38;;;12.95;;
80127;SDS011;69440;52.118;5.408;2023-11-18T02:02:00;24.15;;;11.43;;
80127;SDS011;69440;52.118;5.408;2023-11-18T02:04:28;26.33;;;12.65;;
80127;SDS011;69440;52.118;5.408;2023-11-18T02:06:56;24.58;;;11.35;;
80127;SDS011;69440;52.118;5.408;2023-11-18T02:09:24;27.75;;;13.15;;
80127;SDS011;69440;52.118;5.408;2023-11-18T02:14:46;24.27;;;11.68;;
80127;SDS011;69440;52.118;5.408;2023-11-18T02:17:17;24.38;;;12.35;;
80127;SDS011;69440;52.118;5.408;2023-11-18T02:19:46;25.65;;;11.85;;
80127;SDS011;69440;52.118;5.408;2023-11-18T02:22:13;25.20;;;12.05;;
80127;SDS011;69440;52.118;5.408;2023-11-18T02:24:39;22.52;;;11.88;;
80127;SDS011;69440;52.118;5.408;2023-11-18T02:27:07;28.65;;;12.48;;
80127;SDS011;69440;52.118;5.408;2023-11-18T02:29:39;24.95;;;11.75;;
80127;SDS011;69440;52.118;5.408;2023-11-18T02:32:23;26.90;;;11.90;;
80127;SDS011;69440;52.118;5.408;2023-11-18T02:35:05;25.35;;;11.85;;
80127;SDS011;69440;52.118;5.408;2023-11-18T02:37:47;23.88;;;12.02;;
80127;SDS011;69440;52.118;5.408;2023-11-18T02:40:16;26.48;;;12.38;;
80127;SDS011;69440;52.118;5.408;2023-11-18T02:42:46;25.52;;;12.75;;
80127;SDS011;69440;52.118;5.408;2023-11-18T02:45:19;25.48;;;12.98;;
80127;SDS011;69440;52.118;5.408;2023-11-18T02:47:47;25.77;;;13.70;;
80127;SDS011;69440;52.118;5.408;2023-11-18T02:50:14;28.88;;;13.18;;
80127;SDS011;69440;52.118;5.408;2023-11-18T02:52:42;25.95;;;12.88;;
80127;SDS011;69440;52.118;5.408;2023-11-18T02:55:08;26.35;;;13.63;;
80127;SDS011;69440;52.118;5.408;2023-11-18T02:57:36;27.23;;;13.43;;
80127;SDS011;69440;52.118;5.408;2023-11-18T03:00:04;30.40;;;12.75;;
80127;SDS011;69440;52.118;5.408;2023-11-18T03:02:31;28.52;;;13.60;;
80127;SDS011;69440;52.118;5.408;2023-11-18T03:04:58;32.70;;;14.02;;
80127;SDS011;69440;52.118;5.408;2023-11-18T03:07:24;25.50;;;13.25;;
80127;SDS011;69440;52.118;5.408;2023-11-18T03:09:53;28.95;;;13.52;;
80127;SDS011;69440;52.118;5.408;2023-11-18T03:12:23;33.40;;;13.43;;
80127;SDS011;69440;52.118;5.408;2023-11-18T03:14:54;27.35;;;13.13;;
80127;SDS011;69440;52.118;5.408;2023-11-18T03:17:21;26.85;;;12.18;;
80127;SDS011;69440;52.118;5.408;2023-11-18T03:19:48;27.50;;;12.95;;
80127;SDS011;69440;52.118;5.408;2023-11-18T03:22:16;29.42;;;13.88;;
80127;SDS011;69440;52.118;5.408;2023-11-18T03:24:43;29.73;;;13.60;;
80127;SDS011;69440;52.118;5.408;2023-11-18T03:27:10;28.38;;;14.55;;
80127;SDS011;69440;52.118;5.408;2023-11-18T03:29:36;25.60;;;13.05;;
80127;SDS011;69440;52.118;5.408;2023-11-18T03:32:03;27.00;;;13.25;;
80127;SDS011;69440;52.118;5.408;2023-11-18T03:34:31;27.75;;;12.40;;
80127;SDS011;69440;52.118;5.408;2023-11-18T03:36:58;22.80;;;11.60;;
80127;SDS011;69440;52.118;5.408;2023-11-18T03:39:25;30.35;;;13.65;;
80127;SDS011;69440;52.118;5.408;2023-11-18T03:41:53;30.05;;;14.50;;
80127;SDS011;69440;52.118;5.408;2023-11-18T03:44:20;28.13;;;12.35;;
80127;SDS011;69440;52.118;5.408;2023-11-18T03:46:46;25.80;;;13.00;;
80127;SDS011;69440;52.118;5.408;2023-11-18T03:49:13;26.23;;;13.05;;
80127;SDS011;69440;52.118;5.408;2023-11-18T03:51:39;26.08;;;12.93;;
80127;SDS011;69440;52.118;5.408;2023-11-18T03:54:06;25.42;;;12.63;;
80127;SDS011;69440;52.118;5.408;2023-11-18T03:56:34;26.02;;;13.45;;
80127;SDS011;69440;52.118;5.408;2023-11-18T03:59:01;23.88;;;12.13;;
80127;SDS011;69440;52.118;5.408;2023-11-18T04:01:27;25.10;;;12.52;;
80127;SDS011;69440;52.118;5.408;2023-11-18T04:03:54;28.02;;;13.32;;
80127;SDS011;69440;52.118;5.408;2023-11-18T04:06:21;25.50;;;12.48;;
80127;SDS011;69440;52.118;5.408;2023-11-18T04:08:48;23.33;;;12.02;;
80127;SDS011;69440;52.118;5.408;2023-11-18T04:11:15;21.40;;;12.15;;
80127;SDS011;69440;52.118;5.408;2023-11-18T04:13:42;26.23;;;13.20;;
80127;SDS011;69440;52.118;5.408;2023-11-18T04:16:10;24.38;;;12.75;;
80127;SDS011;69440;52.118;5.408;2023-11-18T04:18:39;23.63;;;12.23;;
80127;SDS011;69440;52.118;5.408;2023-11-18T04:21:07;25.73;;;13.13;;
80127;SDS011;69440;52.118;5.408;2023-11-18T04:23:37;21.05;;;11.57;;
80127;SDS011;69440;52.118;5.408;2023-11-18T04:26:04;24.17;;;12.50;;
80127;SDS011;69440;52.118;5.408;2023-11-18T04:28:31;23.17;;;11.80;;
80127;SDS011;69440;52.118;5.408;2023-11-18T04:30:58;23.95;;;11.18;;
80127;SDS011;69440;52.118;5.408;2023-11-18T04:33:25;22.27;;;12.82;;
80127;SDS011;69440;52.118;5.408;2023-11-18T04:35:52;22.70;;;12.35;;
80127;SDS011;69440;52.118;5.408;2023-11-18T04:38:19;23.38;;;12.55;;
80127;SDS011;69440;52.118;5.408;2023-11-18T04:40:45;26.90;;;13.43;;
80127;SDS011;69440;52.118;5.408;2023-11-18T04:43:12;24.13;;;12.57;;
80127;SDS011;69440;52.118;5.408;2023-11-18T04:45:39;25.48;;;11.73;;
80127;SDS011;69440;52.118;5.408;2023-11-18T04:48:05;26.17;;;12.90;;
80127;SDS011;69440;52.118;5.408;2023-11-18T04:50:32;23.42;;;11.55;;
80127;SDS011;69440;52.118;5.408;2023-11-18T04:52:59;21.67;;;12.18;;
80127;SDS011;69440;52.118;5.408;2023-11-18T04:55:25;26.73;;;12.27;;
80127;SDS011;69440;52.118;5.408;2023-11-18T04:57:52;22.48;;;12.48;;
80127;SDS011;69440;52.118;5.408;2023-11-18T05:00:20;20.50;;;11.88;;
80127;SDS011;69440;52.118;5.408;2023-11-18T05:02:47;26.17;;;13.45;;
80127;SDS011;69440;52.118;5.408;2023-11-18T05:05:15;21.75;;;11.55;;
80127;SDS011;69440;52.118;5.408;2023-11-18T05:07:42;25.33;;;12.07;;
80127;SDS011;69440;52.118;5.408;2023-11-18T05:10:09;25.33;;;12.07;;
80127;SDS011;69440;52.118;5.408;2023-11-18T05:12:37;22.90;;;11.95;;
80127;SDS011;69440;52.118;5.408;2023-11-18T05:15:04;22.77;;;12.57;;
80127;SDS011;69440;52.118;5.408;2023-11-18T05:17:34;24.88;;;11.52;;
80127;SDS011;69440;52.118;5.408;2023-11-18T05:20:05;25.42;;;11.80;;
80127;SDS011;69440;52.118;5.408;2023-11-18T05:22:37;22.65;;;12.85;;
80127;SDS011;69440;52.118;5.408;2023-11-18T05:25:03;26.65;;;13.20;;
80127;SDS011;69440;52.118;5.408;2023-11-18T05:27:36;24.70;;;12.40;;
80127;SDS011;69440;52.118;5.408;2023-11-18T05:30:02;22.92;;;12.25;;
80127;SDS011;69440;52.118;5.408;2023-11-18T05:32:29;26.08;;;13.23;;
80127;SDS011;69440;52.118;5.408;2023-11-18T05:34:56;26.67;;;12.23;;
80127;SDS011;69440;52.118;5.408;2023-11-18T05:37:24;23.38;;;12.05;;
80127;SDS011;69440;52.118;5.408;2023-11-18T05:39:50;29.30;;;12.70;;
80127;SDS011;69440;52.118;5.408;2023-11-18T05:42:25;20.67;;;11.38;;
80127;SDS011;69440;52.118;5.408;2023-11-18T05:44:55;21.55;;;11.07;;
80127;SDS011;69440;52.118;5.408;2023-11-18T05:47:25;31.13;;;11.23;;
80127;SDS011;69440;52.118;5.408;2023-11-18T05:49:52;20.15;;;10.63;;
80127;SDS011;69440;52.118;5.408;2023-11-18T05:52:19;20.90;;;11.02;;
80127;SDS011;69440;52.118;5.408;2023-11-18T05:54:47;22.38;;;11.52;;
80127;SDS011;69440;52.118;5.408;2023-11-18T05:57:16;24.30;;;11.00;;
80127;SDS011;69440;52.118;5.408;2023-11-18T05:59:43;23.58;;;11.80;;
80127;SDS011;69440;52.118;5.408;2023-11-18T06:02:09;21.67;;;10.30;;
80127;SDS011;69440;52.118;5.408;2023-11-18T06:04:44;20.45;;;10.70;;
80127;SDS011;69440;52.118;5.408;2023-11-18T06:07:11;20.58;;;10.45;;
80127;SDS011;69440;52.118;5.408;2023-11-18T06:09:43;20.75;;;9.98;;
80127;SDS011;69440;52.118;5.408;2023-11-18T06:12:11;21.38;;;11.45;;
80127;SDS011;69440;52.118;5.408;2023-11-18T06:14:39;18.73;;;9.82;;
80127;SDS011;69440;52.118;5.408;2023-11-18T06:17:07;19.13;;;9.52;;
80127;SDS011;69440;52.118;5.408;2023-11-18T06:19:34;19.92;;;10.18;;
80127;SDS011;69440;52.118;5.408;2023-11-18T06:22:01;24.15;;;10.38;;
80127;SDS011;69440;52.118;5.408;2023-11-18T06:24:27;20.13;;;9.82;;
80127;SDS011;69440;52.118;5.408;2023-11-18T06:26:54;18.45;;;9.52;;
80127;SDS011;69440;52.118;5.408;2023-11-18T06:29:21;22.40;;;9.60;;
80127;SDS011;69440;52.118;5.408;2023-11-18T06:31:47;17.17;;;9.07;;
80127;SDS011;69440;52.118;5.408;2023-11-18T06:34:14;17.98;;;9.45;;
80127;SDS011;69440;52.118;5.408;2023-11-18T06:36:41;21.08;;;9.00;;
80127;SDS011;69440;52.118;5.408;2023-11-18T06:39:08;18.88;;;8.80;;
80127;SDS011;69440;52.118;5.408;2023-11-18T06:41:35;19.52;;;9.82;;
80127;SDS011;69440;52.118;5.408;2023-11-18T06:44:04;22.48;;;9.20;;
80127;SDS011;69440;52.118;5.408;2023-11-18T06:46:39;17.98;;;9.60;;
80127;SDS011;69440;52.118;5.408;2023-11-18T06:49:07;19.23;;;9.23;;
80127;SDS011;69440;52.118;5.408;2023-11-18T06:51:37;22.05;;;8.93;;
80127;SDS011;69440;52.118;5.408;2023-11-18T06:54:04;18.42;;;9.27;;
80127;SDS011;69440;52.118;5.408;2023-11-18T06:56:36;19.05;;;9.23;;
80127;SDS011;69440;52.118;5.408;2023-11-18T06:59:07;26.55;;;9.75;;
80127;SDS011;69440;52.118;5.408;2023-11-18T07:01:34;19.25;;;9.82;;
80127;SDS011;69440;52.118;5.408;2023-11-18T07:04:02;18.13;;;8.88;;
80127;SDS011;69440;52.118;5.408;2023-11-18T07:06:29;20.83;;;9.23;;
80127;SDS011;69440;52.118;5.408;2023-11-18T07:08:55;22.83;;;8.57;;
80127;SDS011;69440;52.118;5.408;2023-11-18T07:11:26;19.65;;;8.93;;
80127;SDS011;69440;52.118;5.408;2023-11-18T07:13:52;19.00;;;8.77;;
80127;SDS011;69440;52.118;5.408;2023-11-18T07:16:23;18.17;;;9.43;;
80127;SDS011;69440;52.118;5.408;2023-11-18T07:18:50;20.17;;;9.80;;
80127;SDS011;69440;52.118;5.408;2023-11-18T07:21:18;19.25;;;9.20;;
80127;SDS011;69440;52.118;5.408;2023-11-18T07:23:44;22.30;;;9.65;;
80127;SDS011;69440;52.118;5.408;2023-11-18T07:26:11;19.27;;;8.95;;
80127;SDS011;69440;52.118;5.408;2023-11-18T07:28:37;15.35;;;8.82;;
80127;SDS011;69440;52.118;5.408;2023-11-18T07:31:03;18.20;;;8.70;;
80127;SDS011;69440;52.118;5.408;2023-11-18T07:33:34;20.92;;;9.88;;
80127;SDS011;69440;52.118;5.408;2023-11-18T07:36:00;19.42;;;8.20;;
80127;SDS011;69440;52.118;5.408;2023-11-18T07:38:31;17.98;;;8.25;;
80127;SDS011;69440;52.118;5.408;2023-11-18T07:40:59;19.63;;;9.30;;
80127;SDS011;69440;52.118;5.408;2023-11-18T07:43:28;17.17;;;8.35;;
80127;SDS011;69440;52.118;5.408;2023-11-18T07:45:55;16.90;;;8.07;;
80127;SDS011;69440;52.118;5.408;2023-11-18T07:48:21;15.82;;;8.52;;
80127;SDS011;69440;52.118;5.408;2023-11-18T07:50:48;19.05;;;8.48;;
80127;SDS011;69440;52.118;5.408;2023-11-18T07:53:14;18.80;;;9.55;;
80127;SDS011;69440;52.118;5.408;2023-11-18T07:55:42;17.05;;;9.02;;
80127;SDS011;69440;52.118;5.408;2023-11-18T07:58:09;16.90;;;8.55;;
80127;SDS011;69440;52.118;5.408;2023-11-18T08:00:40;17.25;;;8.13;;
80127;SDS011;69440;52.118;5.408;2023-11-18T08:03:09;18.75;;;8.80;;
80127;SDS011;69440;52.118;5.408;2023-11-18T08:05:42;19.10;;;10.00;;
80127;SDS011;69440;52.118;5.408;2023-11-18T08:08:10;22.02;;;9.38;;
80127;SDS011;69440;52.118;5.408;2023-11-18T08:10:38;16.95;;;8.68;;
80127;SDS011;69440;52.118;5.408;2023-11-18T08:13:05;19.15;;;8.45;;
80127;SDS011;69440;52.118;5.408;2023-11-18T08:15:39;14.32;;;7.97;;
80127;SDS011;69440;52.118;5.408;2023-11-18T08:18:07;17.98;;;8.43;;
80127;SDS011;69440;52.118;5.408;2023-11-18T08:20:39;16.65;;;8.27;;
80127;SDS011;69440;52.118;5.408;2023-11-18T08:23:26;16.63;;;7.57;;
80127;SDS011;69440;52.118;5.408;2023-11-18T08:25:56;12.88;;;8.00;;
80127;SDS011;69440;52.118;5.408;2023-11-18T08:28:22;13.88;;;7.03;;
80127;SDS011;69440;52.118;5.408;2023-11-18T08:30:49;15.10;;;7.72;;
80127;SDS011;69440;52.118;5.408;2023-11-18T08:33:19;15.95;;;7.55;;
80127;SDS011;69440;52.118;5.408;2023-11-18T08:35:46;13.27;;;7.07;;
80127;SDS011;69440;52.118;5.408;2023-11-18T08:38:12;15.93;;;7.15;;
80127;SDS011;69440;52.118;5.408;2023-11-18T08:40:40;15.90;;;7.32;;
80127;SDS011;69440;52.118;5.408;2023-11-18T08:43:09;17.67;;;7.75;;
80127;SDS011;69440;52.118;5.408;2023-11-18T08:45:35;12.05;;;6.65;;
80127;SDS011;69440;52.118;5.408;2023-11-18T08:48:03;12.40;;;7.82;;
80127;SDS011;69440;52.118;5.408;2023-11-18T08:50:35;11.45;;;6.57;;
80127;SDS011;69440;52.118;5.408;2023-11-18T08:53:02;12.10;;;6.22;;
80127;SDS011;69440;52.118;5.408;2023-11-18T08:55:36;14.52;;;7.22;;
80127;SDS011;69440;52.118;5.408;2023-11-18T08:58:09;11.57;;;5.38;;
80127;SDS011;69440;52.118;5.408;2023-11-18T09:00:56;9.73;;;5.10;;
80127;SDS011;69440;52.118;5.408;2023-11-18T09:03:40;9.02;;;6.07;;
80127;SDS011;69440;52.118;5.408;2023-11-18T09:06:14;12.38;;;5.68;;
80127;SDS011;69440;52.118;5.408;2023-11-18T09:08:45;14.38;;;5.80;;
80127;SDS011;69440;52.118;5.408;2023-11-18T09:11:19;11.00;;;5.22;;
80127;SDS011;69440;52.118;5.408;2023-11-18T09:13:49;10.93;;;6.03;;
80127;SDS011;69440;52.118;5.408;2023-11-18T09:16:20;9.15;;;5.00;;
80127;SDS011;69440;52.118;5.408;2023-11-18T09:18:51;14.23;;;5.45;;
80127;SDS011;69440;52.118;5.408;2023-11-18T09:21:18;10.45;;;6.30;;
80127;SDS011;69440;52.118;5.408;2023-11-18T09:23:51;10.18;;;5.20;;
80127;SDS011;69440;52.118;5.408;2023-11-18T09:26:18;8.57;;;5.60;;
80127;SDS011;69440;52.118;5.408;2023-11-18T09:28:44;10.30;;;5.25;;
80127;SDS011;69440;52.118;5.408;2023-11-18T09:31:11;11.95;;;5.40;;
80127;SDS011;69440;52.118;5.408;2023-11-18T09:33:39;12.82;;;6.30;;
80127;SDS011;69440;52.118;5.408;2023-11-18T09:36:11;10.38;;;4.88;;
80127;SDS011;69440;52.118;5.408;2023-11-18T09:38:39;11.73;;;4.93;;
80127;SDS011;69440;52.118;5.408;2023-11-18T09:41:10;10.57;;;4.90;;
80127;SDS011;69440;52.118;5.408;2023-11-18T09:43:38;11.32;;;5.20;;
80127;SDS011;69440;52.118;5.408;2023-11-18T09:46:09;9.73;;;5.32;;
80127;SDS011;69440;52.118;5.408;2023-11-18T09:48:44;10.30;;;5.05;;
80127;SDS011;69440;52.118;5.408;2023-11-18T09:51:26;7.97;;;4.53;;
80127;SDS011;69440;52.118;5.408;2023-11-18T09:53:59;9.52;;;5.13;;
80127;SDS011;69440;52.118;5.408;2023-11-18T09:56:30;10.55;;;5.72;;
80127;SDS011;69440;52.118;5.408;2023-11-18T09:59:07;8.85;;;5.22;;
80127;SDS011;69440;52.118;5.408;2023-11-18T10:01:43;11.10;;;5.72;;
80127;SDS011;69440;52.118;5.408;2023-11-18T10:04:10;8.07;;;4.13;;
80127;SDS011;69440;52.118;5.408;2023-11-18T10:06:38;10.77;;;5.40;;
80127;SDS011;69440;52.118;5.408;2023-11-18T10:09:08;13.10;;;5.00;;
80127;SDS011;69440;52.118;5.408;2023-11-18T10:11:48;8.55;;;4.70;;
80127;SDS011;69440;52.118;5.408;2023-11-18T10:14:15;10.63;;;5.38;;
80127;SDS011;69440;52.118;5.408;2023-11-18T10:16:43;10.07;;;4.63;;
80127;SDS011;69440;52.118;5.408;2023-11-18T10:19:13;8.52;;;5.60;;
80127;SDS011;69440;52.118;5.408;2023-11-18T10:21:40;10.07;;;5.35;;
80127;SDS011;69440;52.118;5.408;2023-11-18T10:24:07;10.98;;;5.07;;
80127;SDS011;69440;52.118;5.408;2023-11-18T10:26:55;10.48;;;5.45;;
80127;SDS011;69440;52.118;5.408;2023-11-18T10:32:04;9.02;;;4.32;;
80127;SDS011;69440;52.118;5.408;2023-11-18T10:34:36;10.18;;;4.90;;
80127;SDS011;69440;52.118;5.408;2023-11-18T10:37:03;11.50;;;4.53;;
80127;SDS011;69440;52.118;5.408;2023-11-18T10:39:32;12.85;;;5.10;;
80127;SDS011;69440;52.118;5.408;2023-11-18T10:42:02;12.85;;;6.32;;
80127;SDS011;69440;52.118;5.408;2023-11-18T10:44:29;11.13;;;4.85;;
80127;SDS011;69440;52.118;5.408;2023-11-18T10:46:56;10.13;;;4.80;;
80127;SDS011;69440;52.118;5.408;2023-11-18T10:49:26;9.75;;;4.50;;
80127;SDS011;69440;52.118;5.408;2023-11-18T10:52:04;12.95;;;4.95;;
80127;SDS011;69440;52.118;5.408;2023-11-18T10:54:34;8.05;;;4.25;;
80127;SDS011;69440;52.118;5.408;2023-11-18T10:57:01;8.82;;;4.35;;
80127;SDS011;69440;52.118;5.408;2023-11-18T10:59:33;11.40;;;4.53;;
80127;SDS011;69440;52.118;5.408;2023-11-18T11:02:00;9.93;;;4.93;;
80127;SDS011;69440;52.118;5.408;2023-11-18T11:04:27;11.48;;;4.72;;
80127;SDS011;69440;52.118;5.408;2023-11-18T11:07:09;7.00;;;4.28;;
80127;SDS011;69440;52.118;5.408;2023-11-18T11:09:37;8.02;;;4.57;;
80127;SDS011;69440;52.118;5.408;2023-11-18T11:12:10;8.02;;;4.30;;
80127;SDS011;69440;52.118;5.408;2023-11-18T11:14:43;7.43;;;4.20;;
80127;SDS011;69440;52.118;5.408;2023-11-18T11:17:19;10.73;;;4.28;;
80127;SDS011;69440;52.118;5.408;2023-11-18T11:20:07;7.38;;;4.38;;
80127;SDS011;69440;52.118;5.408;2023-11-18T11:27:36;12.50;;;4.32;;
80127;SDS011;69440;52.118;5.408;2023-11-18T11:30:21;10.63;;;4.18;;
80127;SDS011;69440;52.118;5.408;2023-11-18T11:32:52;8.85;;;4.30;;
80127;SDS011;69440;52.118;5.408;2023-11-18T11:35:30;12.85;;;4.45;;
80127;SDS011;69440;52.118;5.408;2023-11-18T11:37:59;13.38;;;4.70;;
80127;SDS011;69440;52.118;5.408;2023-11-18T11:40:36;6.78;;;4.35;;
80127;SDS011;69440;52.118;5.408;2023-11-18T11:43:04;9.55;;;4.55;;
80127;SDS011;69440;52.118;5.408;2023-11-18T11:45:36;8.68;;;4.13;;
80127;SDS011;69440;52.118;5.408;2023-11-18T11:48:03;8.07;;;3.80;;
80127;SDS011;69440;52.118;5.408;2023-11-18T11:54:15;11.23;;;4.35;;
80127;SDS011;69440;52.118;5.408;2023-11-18T11:56:50;8.27;;;4.43;;
80127;SDS011;69440;52.118;5.408;2023-11-18T12:02:13;9.57;;;4.47;;
80127;SDS011;69440;52.118;5.408;2023-11-18T12:04:46;9.38;;;4.45;;
80127;SDS011;69440;52.118;5.408;2023-11-18T12:07:19;8.88;;;3.88;;
80127;SDS011;69440;52.118;5.408;2023-11-18T12:09:49;8.70;;;3.63;;
80127;SDS011;69440;52.118;5.408;2023-11-18T12:12:20;8.38;;;3.58;;
80127;SDS011;69440;52.118;5.408;2023-11-18T12:14:54;9.10;;;3.65;;
80127;SDS011;69440;52.118;5.408;2023-11-18T12:17:26;7.82;;;3.40;;
80127;SDS011;69440;52.118;5.408;2023-11-18T12:19:59;8.07;;;3.53;;
80127;SDS011;69440;52.118;5.408;2023-11-18T12:22:26;7.15;;;3.42;;
80127;SDS011;69440;52.118;5.408;2023-11-18T12:27:45;6.25;;;3.20;;
80127;SDS011;69440;52.118;5.408;2023-11-18T12:35:27;7.32;;;2.83;;
80127;SDS011;69440;52.118;5.408;2023-11-18T12:41:55;7.85;;;2.70;;
80127;SDS011;69440;52.118;5.408;2023-11-18T12:44:14;5.25;;;2.50;;
80127;SDS011;69440;52.118;5.408;2023-11-18T12:46:51;6.78;;;2.50;;
80127;SDS011;69440;52.118;5.408;2023-11-18T12:49:24;10.52;;;2.92;;
80127;SDS011;69440;52.118;5.408;2023-11-18T12:51:51;5.55;;;2.60;;
80127;SDS011;69440;52.118;5.408;2023-11-18T12:54:25;4.50;;;2.13;;
80127;SDS011;69440;52.118;5.408;2023-11-18T12:56:56;6.40;;;2.47;;
80127;SDS011;69440;52.118;5.408;2023-11-18T12:59:23;4.10;;;2.35;;
80127;SDS011;69440;52.118;5.408;2023-11-18T13:01:50;6.57;;;2.72;;
80127;SDS011;69440;52.118;5.408;2023-11-18T13:04:20;7.38;;;2.28;;
80127;SDS011;69440;52.118;5.408;2023-11-18T13:06:47;5.40;;;2.40;;
80127;SDS011;69440;52.118;5.408;2023-11-18T13:09:14;5.82;;;2.00;;
80127;SDS011;69440;52.118;5.408;2023-11-18T13:11:52;6.93;;;2.40;;
80127;SDS011;69440;52.118;5.408;2023-11-18T13:14:23;4.68;;;2.33;;
80127;SDS011;69440;52.118;5.408;2023-11-18T13:16:53;5.10;;;1.95;;
80127;SDS011;69440;52.118;5.408;2023-11-18T13:19:31;5.88;;;2.47;;
80127;SDS011;69440;52.118;5.408;2023-11-18T13:22:04;5.38;;;1.90;;
80127;SDS011;69440;52.118;5.408;2023-11-18T13:24:37;5.93;;;2.10;;
80127;SDS011;69440;52.118;5.408;2023-11-18T13:27:10;5.22;;;2.90;;
80127;SDS011;69440;52.118;5.408;2023-11-18T13:29:43;6.40;;;1.85;;
80127;SDS011;69440;52.118;5.408;2023-11-18T13:32:11;4.07;;;2.00;;
80127;SDS011;69440;52.118;5.408;2023-11-18T13:34:39;4.30;;;1.90;;
80127;SDS011;69440;52.118;5.408;2023-11-18T13:37:08;6.07;;;2.08;;
80127;SDS011;69440;52.118;5.408;2023-11-18T13:39:54;4.55;;;1.80;;
80127;SDS011;69440;52.118;5.408;2023-11-18T13:42:25;3.25;;;2.00;;
80127;SDS011;69440;52.118;5.408;2023-11-18T13:45:02;7.25;;;1.88;;
80127;SDS011;69440;52.118;5.408;2023-11-18T13:47:38;5.10;;;1.92;;
80127;SDS011;69440;52.118;5.408;2023-11-18T13:50:10;3.70;;;1.95;;
80127;SDS011;69440;52.118;5.408;2023-11-18T13:53:01;5.47;;;1.55;;
80127;SDS011;69440;52.118;5.408;2023-11-18T13:55:27;4.72;;;1.63;;
80127;SDS011;69440;52.118;5.408;2023-11-18T13:57:54;4.82;;;1.70;;
80127;SDS011;69440;52.118;5.408;2023-11-18T14:00:27;3.80;;;1.63;;
80127;SDS011;69440;52.118;5.408;2023-11-18T14:02:57;5.35;;;1.70;;
80127;SDS011;69440;52.118;5.408;2023-11-18T14:05:25;3.95;;;1.67;;
80127;SDS011;69440;52.118;5.408;2023-11-18T14:07:52;4.18;;;1.75;;
80127;SDS011;69440;52.118;5.408;2023-11-18T14:10:34;2.25;;;1.65;;
80127;SDS011;69440;52.118;5.408;2023-11-18T14:13:04;1.92;;;1.27;;
80127;SDS011;69440;52.118;5.408;2023-11-18T14:15:39;2.30;;;1.52;;
80127;SDS011;69440;52.118;5.408;2023-11-18T14:18:08;3.42;;;1.60;;
80127;SDS011;69440;52.118;5.408;2023-11-18T14:20:35;2.88;;;1.40;;
80127;SDS011;69440;52.118;5.408;2023-11-18T14:23:02;1.95;;;1.33;;
80127;SDS011;69440;52.118;5.408;2023-11-18T14:25:32;2.33;;;1.42;;
80127;SDS011;69440;52.118;5.408;2023-11-18T14:28:00;3.15;;;1.60;;
80127;SDS011;69440;52.118;5.408;2023-11-18T14:30:28;5.47;;;1.98;;
80127;SDS011;69440;52.118;5.408;2023-11-18T14:32:56;1.90;;;1.40;;
80127;SDS011;69440;52.118;5.408;2023-11-18T14:35:23;2.55;;;1.17;;
80127;SDS011;69440;52.118;5.408;2023-11-18T14:37:53;2.17;;;1.33;;
80127;SDS011;69440;52.118;5.408;2023-11-18T14:40:20;6.03;;;1.25;;
80127;SDS011;69440;52.118;5.408;2023-11-18T14:42:50;1.83;;;1.40;;
80127;SDS011;69440;52.118;5.408;2023-11-18T14:45:17;2.92;;;1.30;;
80127;SDS011;69440;52.118;5.408;2023-11-18T14:47:44;2.10;;;1.40;;
80127;SDS011;69440;52.118;5.408;2023-11-18T14:50:18;2.80;;;1.17;;
80127;SDS011;69440;52.118;5.408;2023-11-18T14:52:46;2.17;;;1.20;;
80127;SDS011;69440;52.118;5.408;2023-11-18T14:55:14;2.15;;;1.30;;
80127;SDS011;69440;52.118;5.408;2023-11-18T14:57:44;2.72;;;1.20;;
80127;SDS011;69440;52.118;5.408;2023-11-18T15:00:11;1.45;;;1.10;;
80127;SDS011;69440;52.118;5.408;2023-11-18T15:02:46;1.90;;;1.20;;
80127;SDS011;69440;52.118;5.408;2023-11-18T15:05:16;1.83;;;1.17;;
80127;SDS011;69440;52.118;5.408;2023-11-18T15:07:48;3.13;;;1.38;;
80127;SDS011;69440;52.118;5.408;2023-11-18T15:10:20;2.88;;;1.30;;
80127;SDS011;69440;52.118;5.408;2023-11-18T15:12:54;2.00;;;1.20;;
80127;SDS011;69440;52.118;5.408;2023-11-18T15:15:25;1.98;;;1.13;;
80127;SDS011;69440;52.118;5.408;2023-11-18T15:17:58;2.00;;;1.30;;